To NAV CANADA Home Page Login to a new session Search on AWWS site Disclaimer Vers la page française équivalente Tips FAQ What's new on the site To the Forecasts and Observations / NOTAM section To "File a Flight Plan" website Publications and other links Update of the User's profile FIC Telephone Numbers My Weather Data Folder Route Weather Data Regional Weather Data Local Weather Data To the Forecasts and Observations / NOTAM section
Request Generated 03/19/2019 at 23:05:27 UTC . Weather information available at that time is displayed.

METAR/TAF

KITCHENER/WATERLOO/ON    (show WxCam)

METAR CYKF 192300Z AUTO 26006KT 9SM FEW055 03/M06 A3030 RMK SLP274=
METAR CYKF 192200Z AUTO 26011KT 220V280 9SM FEW055 05/M07 A3030 RMK SLP274=
METAR CYKF 192100Z AUTO 23010G15KT 220V280 9SM FEW055 05/M06 A3031 RMK SLP277=

TAF CYKF 191939Z 1920/2008 26012KT P6SM SCT060
BECMG 1922/1924 27006KT
RMK FCST BASED ON AUTO OBS. NXT FCST BY 200200Z=
Your time UTC time
Weather data provided by Environment Canada and NAV CANADA